sensor_id;sensor_type;location;lat;lon;timestamp;temperature;humidity
66271;DHT22;53063;39.614;8.814;2022-12-07T00:01:35;9.50;99.90
66271;DHT22;53063;39.614;8.814;2022-12-07T00:04:02;9.60;99.90
66271;DHT22;53063;39.614;8.814;2022-12-07T00:06:36;9.70;99.90
66271;DHT22;53063;39.614;8.814;2022-12-07T00:09:04;9.50;99.90
66271;DHT22;53063;39.614;8.814;2022-12-07T00:11:31;9.40;99.90
66271;DHT22;53063;39.614;8.814;2022-12-07T00:13:59;9.40;99.90
66271;DHT22;53063;39.614;8.814;2022-12-07T00:16:29;9.40;99.90
66271;DHT22;53063;39.614;8.814;2022-12-07T00:18:55;9.40;99.90
66271;DHT22;53063;39.614;8.814;2022-12-07T00:21:27;9.50;99.90
66271;DHT22;53063;39.614;8.814;2022-12-07T00:23:54;9.60;99.90
66271;DHT22;53063;39.614;8.814;2022-12-07T00:26:32;9.70;99.90
66271;DHT22;53063;39.614;8.814;2022-12-07T00:29:03;9.80;99.90
66271;DHT22;53063;39.614;8.814;2022-12-07T00:31:35;10.40;99.90
66271;DHT22;53063;39.614;8.814;2022-12-07T00:34:05;11.10;99.90
66271;DHT22;53063;39.614;8.814;2022-12-07T00:36:32;11.40;99.90
66271;DHT22;53063;39.614;8.814;2022-12-07T00:38:59;11.50;99.90
66271;DHT22;53063;39.614;8.814;2022-12-07T00:41:27;11.60;99.90
66271;DHT22;53063;39.614;8.814;2022-12-07T00:43:53;11.60;99.90
66271;DHT22;53063;39.614;8.814;2022-12-07T00:46:20;11.60;99.90
66271;DHT22;53063;39.614;8.814;2022-12-07T00:48:48;11.60;99.90
66271;DHT22;53063;39.614;8.814;2022-12-07T00:51:15;11.70;99.90
66271;DHT22;53063;39.614;8.814;2022-12-07T00:53:41;11.60;99.90
66271;DHT22;53063;39.614;8.814;2022-12-07T00:56:09;11.60;99.90
66271;DHT22;53063;39.614;8.814;2022-12-07T00:58:35;11.60;99.90
66271;DHT22;53063;39.614;8.814;2022-12-07T01:01:02;11.70;99.90
66271;DHT22;53063;39.614;8.814;2022-12-07T01:03:28;11.60;99.90
66271;DHT22;53063;39.614;8.814;2022-12-07T01:05:55;11.70;99.90
66271;DHT22;53063;39.614;8.814;2022-12-07T01:08:22;11.70;99.90
66271;DHT22;53063;39.614;8.814;2022-12-07T01:10:49;11.70;99.90
66271;DHT22;53063;39.614;8.814;2022-12-07T01:13:16;11.70;99.90
66271;DHT22;53063;39.614;8.814;2022-12-07T01:15:43;11.60;99.90
66271;DHT22;53063;39.614;8.814;2022-12-07T01:18:09;11.70;99.90
66271;DHT22;53063;39.614;8.814;2022-12-07T01:20:35;11.60;99.90
66271;DHT22;53063;39.614;8.814;2022-12-07T01:23:01;11.60;99.90
66271;DHT22;53063;39.614;8.814;2022-12-07T01:25:28;11.70;99.90
66271;DHT22;53063;39.614;8.814;2022-12-07T01:27:53;11.70;99.90
66271;DHT22;53063;39.614;8.814;2022-12-07T01:30:19;11.70;99.90
66271;DHT22;53063;39.614;8.814;2022-12-07T01:32:45;11.70;99.90
66271;DHT22;53063;39.614;8.814;2022-12-07T01:35:11;11.70;99.90
66271;DHT22;53063;39.614;8.814;2022-12-07T01:37:38;11.70;99.90
66271;DHT22;53063;39.614;8.814;2022-12-07T01:40:06;11.70;99.90
66271;DHT22;53063;39.614;8.814;2022-12-07T01:42:33;11.70;99.90
66271;DHT22;53063;39.614;8.814;2022-12-07T01:47:52;11.70;99.90
66271;DHT22;53063;39.614;8.814;2022-12-07T01:50:20;11.60;99.90
66271;DHT22;53063;39.614;8.814;2022-12-07T01:52:49;11.60;99.90
66271;DHT22;53063;39.614;8.814;2022-12-07T01:55:16;11.60;99.90
66271;DHT22;53063;39.614;8.814;2022-12-07T01:57:48;11.60;99.90
66271;DHT22;53063;39.614;8.814;2022-12-07T02:00:15;11.60;99.90
66271;DHT22;53063;39.614;8.814;2022-12-07T02:02:48;11.60;99.90
66271;DHT22;53063;39.614;8.814;2022-12-07T02:05:17;11.60;99.90
66271;DHT22;53063;39.614;8.814;2022-12-07T02:07:46;11.60;99.90
66271;DHT22;53063;39.614;8.814;2022-12-07T02:10:20;11.50;99.90
66271;DHT22;53063;39.614;8.814;2022-12-07T02:12:50;11.30;99.90
66271;DHT22;53063;39.614;8.814;2022-12-07T02:15:17;11.00;99.90
66271;DHT22;53063;39.614;8.814;2022-12-07T02:20:37;10.40;99.90
66271;DHT22;53063;39.614;8.814;2022-12-07T02:23:45;10.30;99.90
66271;DHT22;53063;39.614;8.814;2022-12-07T02:26:44;10.20;99.90
66271;DHT22;53063;39.614;8.814;2022-12-07T02:29:18;10.00;99.90
66271;DHT22;53063;39.614;8.814;2022-12-07T02:34:30;10.30;99.90
66271;DHT22;53063;39.614;8.814;2022-12-07T02:37:02;10.30;99.90
66271;DHT22;53063;39.614;8.814;2022-12-07T02:39:44;10.30;99.90
66271;DHT22;53063;39.614;8.814;2022-12-07T02:42:17;10.40;99.90
66271;DHT22;53063;39.614;8.814;2022-12-07T02:44:45;10.40;99.90
66271;DHT22;53063;39.614;8.814;2022-12-07T02:47:14;10.40;99.90
66271;DHT22;53063;39.614;8.814;2022-12-07T02:49:42;10.30;99.90
66271;DHT22;53063;39.614;8.814;2022-12-07T02:52:08;10.20;99.90
66271;DHT22;53063;39.614;8.814;2022-12-07T02:54:34;10.20;99.90
66271;DHT22;53063;39.614;8.814;2022-12-07T03:00:07;10.20;99.90
66271;DHT22;53063;39.614;8.814;2022-12-07T03:03:03;10.00;99.90
66271;DHT22;53063;39.614;8.814;2022-12-07T03:11:18;9.80;99.90
66271;DHT22;53063;39.614;8.814;2022-12-07T03:16:26;9.80;99.90
66271;DHT22;53063;39.614;8.814;2022-12-07T03:18:57;9.60;99.90
66271;DHT22;53063;39.614;8.814;2022-12-07T03:21:26;9.50;99.90
66271;DHT22;53063;39.614;8.814;2022-12-07T03:23:59;9.40;99.90
66271;DHT22;53063;39.614;8.814;2022-12-07T03:26:36;9.40;99.90
66271;DHT22;53063;39.614;8.814;2022-12-07T03:29:23;9.40;99.90
66271;DHT22;53063;39.614;8.814;2022-12-07T03:32:02;9.50;99.90
66271;DHT22;53063;39.614;8.814;2022-12-07T03:34:34;9.40;99.90
66271;DHT22;53063;39.614;8.814;2022-12-07T03:39:41;9.40;99.90
66271;DHT22;53063;39.614;8.814;2022-12-07T03:42:09;9.50;99.90
66271;DHT22;53063;39.614;8.814;2022-12-07T03:44:36;9.50;99.90
66271;DHT22;53063;39.614;8.814;2022-12-07T03:47:25;9.50;99.90
66271;DHT22;53063;39.614;8.814;2022-12-07T03:50:01;9.40;99.90
66271;DHT22;53063;39.614;8.814;2022-12-07T03:52:30;9.40;99.90
66271;DHT22;53063;39.614;8.814;2022-12-07T03:55:09;9.50;99.90
66271;DHT22;53063;39.614;8.814;2022-12-07T03:57:36;9.50;99.90
66271;DHT22;53063;39.614;8.814;2022-12-07T04:00:06;9.60;99.90
66271;DHT22;53063;39.614;8.814;2022-12-07T04:02:37;9.60;99.90
66271;DHT22;53063;39.614;8.814;2022-12-07T04:05:04;9.60;99.90
66271;DHT22;53063;39.614;8.814;2022-12-07T04:07:30;9.60;99.90
66271;DHT22;53063;39.614;8.814;2022-12-07T04:09:56;9.70;99.90
66271;DHT22;53063;39.614;8.814;2022-12-07T04:12:23;9.70;99.90
66271;DHT22;53063;39.614;8.814;2022-12-07T04:14:49;9.60;99.90
66271;DHT22;53063;39.614;8.814;2022-12-07T04:17:15;9.70;99.90
66271;DHT22;53063;39.614;8.814;2022-12-07T04:19:41;9.80;99.90
66271;DHT22;53063;39.614;8.814;2022-12-07T04:22:07;9.80;99.90
66271;DHT22;53063;39.614;8.814;2022-12-07T04:24:34;9.70;99.90
66271;DHT22;53063;39.614;8.814;2022-12-07T04:27:00;9.60;99.90
66271;DHT22;53063;39.614;8.814;2022-12-07T04:29:26;9.80;99.90
66271;DHT22;53063;39.614;8.814;2022-12-07T04:31:52;9.80;99.90
66271;DHT22;53063;39.614;8.814;2022-12-07T04:34:19;9.90;99.90
66271;DHT22;53063;39.614;8.814;2022-12-07T04:36:45;9.90;99.90
66271;DHT22;53063;39.614;8.814;2022-12-07T04:39:32;9.80;99.90
66271;DHT22;53063;39.614;8.814;2022-12-07T04:41:58;9.70;99.90
66271;DHT22;53063;39.614;8.814;2022-12-07T04:44:26;9.80;99.90
66271;DHT22;53063;39.614;8.814;2022-12-07T04:46:53;9.70;99.90
66271;DHT22;53063;39.614;8.814;2022-12-07T04:49:19;9.70;99.90
66271;DHT22;53063;39.614;8.814;2022-12-07T04:51:46;9.70;99.90
66271;DHT22;53063;39.614;8.814;2022-12-07T04:54:14;9.80;99.90
66271;DHT22;53063;39.614;8.814;2022-12-07T04:56:40;9.80;99.90
66271;DHT22;53063;39.614;8.814;2022-12-07T04:59:06;9.70;99.90
66271;DHT22;53063;39.614;8.814;2022-12-07T05:01:33;9.60;99.90
66271;DHT22;53063;39.614;8.814;2022-12-07T05:03:59;9.50;99.90
66271;DHT22;53063;39.614;8.814;2022-12-07T05:06:25;9.40;99.90
66271;DHT22;53063;39.614;8.814;2022-12-07T05:08:51;9.30;99.90
66271;DHT22;53063;39.614;8.814;2022-12-07T05:11:17;9.40;99.90
66271;DHT22;53063;39.614;8.814;2022-12-07T05:14:05;9.30;99.90
66271;DHT22;53063;39.614;8.814;2022-12-07T05:16:31;9.60;99.90
66271;DHT22;53063;39.614;8.814;2022-12-07T05:18:57;9.90;99.90
66271;DHT22;53063;39.614;8.814;2022-12-07T05:21:24;10.10;99.90
66271;DHT22;53063;39.614;8.814;2022-12-07T05:23:50;10.20;99.90
66271;DHT22;53063;39.614;8.814;2022-12-07T05:26:16;10.20;99.90
66271;DHT22;53063;39.614;8.814;2022-12-07T05:28:43;10.10;99.90
66271;DHT22;53063;39.614;8.814;2022-12-07T05:31:09;10.20;99.90
66271;DHT22;53063;39.614;8.814;2022-12-07T05:33:35;10.10;99.90
66271;DHT22;53063;39.614;8.814;2022-12-07T05:36:00;10.10;99.90
66271;DHT22;53063;39.614;8.814;2022-12-07T05:38:32;10.00;99.90
66271;DHT22;53063;39.614;8.814;2022-12-07T05:41:02;9.80;99.90
66271;DHT22;53063;39.614;8.814;2022-12-07T05:43:28;9.50;99.90
66271;DHT22;53063;39.614;8.814;2022-12-07T05:45:55;9.40;99.90
66271;DHT22;53063;39.614;8.814;2022-12-07T05:48:21;9.40;99.90
66271;DHT22;53063;39.614;8.814;2022-12-07T05:50:50;9.30;99.90
66271;DHT22;53063;39.614;8.814;2022-12-07T05:53:16;9.30;99.90
66271;DHT22;53063;39.614;8.814;2022-12-07T05:55:43;9.20;99.90
66271;DHT22;53063;39.614;8.814;2022-12-07T05:58:09;9.20;99.90
66271;DHT22;53063;39.614;8.814;2022-12-07T06:00:56;9.10;99.90
66271;DHT22;53063;39.614;8.814;2022-12-07T06:03:22;9.30;99.90
66271;DHT22;53063;39.614;8.814;2022-12-07T06:05:48;9.50;99.90
66271;DHT22;53063;39.614;8.814;2022-12-07T06:08:14;9.80;99.90
66271;DHT22;53063;39.614;8.814;2022-12-07T06:10:41;9.90;99.90
66271;DHT22;53063;39.614;8.814;2022-12-07T06:13:11;9.90;99.90
66271;DHT22;53063;39.614;8.814;2022-12-07T06:15:36;9.80;99.90
66271;DHT22;53063;39.614;8.814;2022-12-07T06:18:02;9.70;99.90
66271;DHT22;53063;39.614;8.814;2022-12-07T06:20:28;9.70;99.90
66271;DHT22;53063;39.614;8.814;2022-12-07T06:22:54;9.60;99.90
66271;DHT22;53063;39.614;8.814;2022-12-07T06:25:20;9.50;99.90
66271;DHT22;53063;39.614;8.814;2022-12-07T06:27:46;9.50;99.90
66271;DHT22;53063;39.614;8.814;2022-12-07T06:30:12;9.60;99.90
66271;DHT22;53063;39.614;8.814;2022-12-07T06:32:38;9.50;99.90
66271;DHT22;53063;39.614;8.814;2022-12-07T06:35:04;9.50;99.90
66271;DHT22;53063;39.614;8.814;2022-12-07T06:37:30;9.50;99.90
66271;DHT22;53063;39.614;8.814;2022-12-07T06:39:56;9.40;99.90
66271;DHT22;53063;39.614;8.814;2022-12-07T06:42:22;9.50;99.90
66271;DHT22;53063;39.614;8.814;2022-12-07T06:44:48;9.50;99.90
66271;DHT22;53063;39.614;8.814;2022-12-07T06:47:14;9.50;99.90
66271;DHT22;53063;39.614;8.814;2022-12-07T06:49:40;9.50;99.90
66271;DHT22;53063;39.614;8.814;2022-12-07T06:52:06;9.60;99.90
66271;DHT22;53063;39.614;8.814;2022-12-07T06:54:32;9.60;99.90
66271;DHT22;53063;39.614;8.814;2022-12-07T06:56:58;9.60;99.90
66271;DHT22;53063;39.614;8.814;2022-12-07T06:59:24;9.50;99.90
66271;DHT22;53063;39.614;8.814;2022-12-07T07:01:49;9.60;99.90
66271;DHT22;53063;39.614;8.814;2022-12-07T07:04:15;9.60;99.90
66271;DHT22;53063;39.614;8.814;2022-12-07T07:06:41;9.80;99.90
66271;DHT22;53063;39.614;8.814;2022-12-07T07:09:07;10.00;99.90
66271;DHT22;53063;39.614;8.814;2022-12-07T07:11:35;10.10;99.90
66271;DHT22;53063;39.614;8.814;2022-12-07T07:14:00;10.20;99.90
66271;DHT22;53063;39.614;8.814;2022-12-07T07:16:29;10.20;99.90
66271;DHT22;53063;39.614;8.814;2022-12-07T07:18:57;10.20;99.90
66271;DHT22;53063;39.614;8.814;2022-12-07T07:21:22;10.20;99.90
66271;DHT22;53063;39.614;8.814;2022-12-07T07:23:48;10.40;99.90
66271;DHT22;53063;39.614;8.814;2022-12-07T07:26:14;10.50;99.90
66271;DHT22;53063;39.614;8.814;2022-12-07T07:28:40;10.50;99.90
66271;DHT22;53063;39.614;8.814;2022-12-07T07:31:06;10.60;99.90
66271;DHT22;53063;39.614;8.814;2022-12-07T07:33:32;10.80;99.90
66271;DHT22;53063;39.614;8.814;2022-12-07T07:35:58;11.30;99.90
66271;DHT22;53063;39.614;8.814;2022-12-07T07:38:24;11.80;99.90
66271;DHT22;53063;39.614;8.814;2022-12-07T07:40:50;12.70;99.90
66271;DHT22;53063;39.614;8.814;2022-12-07T07:43:16;13.10;99.90
66271;DHT22;53063;39.614;8.814;2022-12-07T07:45:42;13.10;99.90
66271;DHT22;53063;39.614;8.814;2022-12-07T07:48:08;13.80;99.90
66271;DHT22;53063;39.614;8.814;2022-12-07T07:50:33;15.40;99.90
66271;DHT22;53063;39.614;8.814;2022-12-07T07:52:59;16.70;99.90
66271;DHT22;53063;39.614;8.814;2022-12-07T07:55:25;17.90;90.00
66271;DHT22;53063;39.614;8.814;2022-12-07T07:57:51;18.50;81.70
66271;DHT22;53063;39.614;8.814;2022-12-07T08:00:17;18.10;82.00
66271;DHT22;53063;39.614;8.814;2022-12-07T08:02:44;18.40;79.40
66271;DHT22;53063;39.614;8.814;2022-12-07T08:05:11;19.00;77.30
66271;DHT22;53063;39.614;8.814;2022-12-07T08:07:37;19.30;75.20
66271;DHT22;53063;39.614;8.814;2022-12-07T08:10:03;19.50;74.20
66271;DHT22;53063;39.614;8.814;2022-12-07T08:12:29;20.00;72.20
66271;DHT22;53063;39.614;8.814;2022-12-07T08:14:55;20.20;71.50
66271;DHT22;53063;39.614;8.814;2022-12-07T08:17:21;21.00;68.90
66271;DHT22;53063;39.614;8.814;2022-12-07T08:19:47;22.50;67.20
66271;DHT22;53063;39.614;8.814;2022-12-07T08:22:13;23.00;61.80
66271;DHT22;53063;39.614;8.814;2022-12-07T08:24:39;23.00;62.00
66271;DHT22;53063;39.614;8.814;2022-12-07T08:27:05;23.10;59.30
66271;DHT22;53063;39.614;8.814;2022-12-07T08:29:31;23.90;58.10
66271;DHT22;53063;39.614;8.814;2022-12-07T08:31:56;24.50;55.20
66271;DHT22;53063;39.614;8.814;2022-12-07T08:34:22;24.60;54.60
66271;DHT22;53063;39.614;8.814;2022-12-07T08:36:48;24.80;54.50
66271;DHT22;53063;39.614;8.814;2022-12-07T08:39:14;24.30;53.10
66271;DHT22;53063;39.614;8.814;2022-12-07T08:41:40;24.70;54.00
66271;DHT22;53063;39.614;8.814;2022-12-07T08:44:06;24.70;52.90
66271;DHT22;53063;39.614;8.814;2022-12-07T08:46:51;24.90;51.30
66271;DHT22;53063;39.614;8.814;2022-12-07T08:49:30;25.20;51.20
66271;DHT22;53063;39.614;8.814;2022-12-07T08:51:59;24.80;52.90
66271;DHT22;53063;39.614;8.814;2022-12-07T08:54:25;24.40;52.20
66271;DHT22;53063;39.614;8.814;2022-12-07T08:56:51;23.90;53.70
66271;DHT22;53063;39.614;8.814;2022-12-07T08:59:19;24.10;53.90
66271;DHT22;53063;39.614;8.814;2022-12-07T09:01:45;24.50;51.30
66271;DHT22;53063;39.614;8.814;2022-12-07T09:04:11;24.30;54.60
66271;DHT22;53063;39.614;8.814;2022-12-07T09:06:38;25.30;51.50
66271;DHT22;53063;39.614;8.814;2022-12-07T09:09:04;26.00;51.40
66271;DHT22;53063;39.614;8.814;2022-12-07T09:11:30;26.00;48.60
66271;DHT22;53063;39.614;8.814;2022-12-07T09:13:56;25.70;50.00
66271;DHT22;53063;39.614;8.814;2022-12-07T09:16:22;25.70;49.50
66271;DHT22;53063;39.614;8.814;2022-12-07T09:18:47;24.30;52.20
66271;DHT22;53063;39.614;8.814;2022-12-07T09:21:13;23.90;53.70
66271;DHT22;53063;39.614;8.814;2022-12-07T09:23:41;24.00;54.00
66271;DHT22;53063;39.614;8.814;2022-12-07T09:26:08;24.60;53.50
66271;DHT22;53063;39.614;8.814;2022-12-07T09:28:34;25.90;50.60
66271;DHT22;53063;39.614;8.814;2022-12-07T09:30:59;26.10;50.20
66271;DHT22;53063;39.614;8.814;2022-12-07T09:33:25;26.60;48.80
66271;DHT22;53063;39.614;8.814;2022-12-07T09:35:52;27.00;50.80
66271;DHT22;53063;39.614;8.814;2022-12-07T09:38:18;27.00;47.30
66271;DHT22;53063;39.614;8.814;2022-12-07T09:40:45;26.60;48.00
66271;DHT22;53063;39.614;8.814;2022-12-07T09:43:25;26.70;48.80
66271;DHT22;53063;39.614;8.814;2022-12-07T09:45:53;27.60;47.70
66271;DHT22;53063;39.614;8.814;2022-12-07T09:48:30;27.30;47.30
66271;DHT22;53063;39.614;8.814;2022-12-07T09:50:58;26.90;50.10
66271;DHT22;53063;39.614;8.814;2022-12-07T09:53:37;26.40;48.00
66271;DHT22;53063;39.614;8.814;2022-12-07T09:56:04;26.00;49.50
66271;DHT22;53063;39.614;8.814;2022-12-07T09:58:31;25.90;49.70
66271;DHT22;53063;39.614;8.814;2022-12-07T10:03:36;26.90;48.10
66271;DHT22;53063;39.614;8.814;2022-12-07T10:06:04;26.20;48.80
66271;DHT22;53063;39.614;8.814;2022-12-07T10:08:31;25.70;51.20
66271;DHT22;53063;39.614;8.814;2022-12-07T10:10:57;26.90;48.90
66271;DHT22;53063;39.614;8.814;2022-12-07T10:13:41;26.40;48.10
66271;DHT22;53063;39.614;8.814;2022-12-07T10:16:32;26.40;49.80
66271;DHT22;53063;39.614;8.814;2022-12-07T10:22:01;26.60;47.90
66271;DHT22;53063;39.614;8.814;2022-12-07T10:24:28;26.10;49.60
66271;DHT22;53063;39.614;8.814;2022-12-07T10:26:55;27.00;49.80
66271;DHT22;53063;39.614;8.814;2022-12-07T10:32:05;27.40;49.10
66271;DHT22;53063;39.614;8.814;2022-12-07T10:34:37;27.30;49.20
66271;DHT22;53063;39.614;8.814;2022-12-07T10:39:47;27.20;48.40
66271;DHT22;53063;39.614;8.814;2022-12-07T10:42:27;26.60;51.10
66271;DHT22;53063;39.614;8.814;2022-12-07T11:01:13;28.50;47.00
66271;DHT22;53063;39.614;8.814;2022-12-07T11:06:54;26.70;49.50
66271;DHT22;53063;39.614;8.814;2022-12-07T11:15:22;23.40;58.10
66271;DHT22;53063;39.614;8.814;2022-12-07T11:21:10;22.60;61.70
66271;DHT22;53063;39.614;8.814;2022-12-07T11:31:46;21.80;63.70
66271;DHT22;53063;39.614;8.814;2022-12-07T11:36:54;21.70;65.50
66271;DHT22;53063;39.614;8.814;2022-12-07T11:42:14;21.40;66.20
66271;DHT22;53063;39.614;8.814;2022-12-07T11:44:57;21.40;65.90
66271;DHT22;53063;39.614;8.814;2022-12-07T11:47:38;20.90;67.10
66271;DHT22;53063;39.614;8.814;2022-12-07T11:50:33;21.00;66.10
66271;DHT22;53063;39.614;8.814;2022-12-07T12:06:29;21.00;67.80
66271;DHT22;53063;39.614;8.814;2022-12-07T12:15:08;20.20;69.60
66271;DHT22;53063;39.614;8.814;2022-12-07T12:18:03;19.90;71.40
66271;DHT22;53063;39.614;8.814;2022-12-07T12:20:45;20.20;70.10
66271;DHT22;53063;39.614;8.814;2022-12-07T12:23:43;19.90;69.60
66271;DHT22;53063;39.614;8.814;2022-12-07T12:26:21;20.00;70.30
66271;DHT22;53063;39.614;8.814;2022-12-07T12:33:51;20.30;69.30
66271;DHT22;53063;39.614;8.814;2022-12-07T12:47:00;21.00;68.90
66271;DHT22;53063;39.614;8.814;2022-12-07T12:49:42;21.20;69.40
66271;DHT22;53063;39.614;8.814;2022-12-07T12:55:17;21.10;67.20
66271;DHT22;53063;39.614;8.814;2022-12-07T13:00:31;20.80;67.80
66271;DHT22;53063;39.614;8.814;2022-12-07T13:02:59;20.50;68.20
66271;DHT22;53063;39.614;8.814;2022-12-07T13:05:30;19.90;69.60
66271;DHT22;53063;39.614;8.814;2022-12-07T13:33:47;19.60;72.90
66271;DHT22;53063;39.614;8.814;2022-12-07T13:36:22;19.90;71.80
66271;DHT22;53063;39.614;8.814;2022-12-07T13:38:57;20.20;70.60
66271;DHT22;53063;39.614;8.814;2022-12-07T13:41:28;20.40;70.80
66271;DHT22;53063;39.614;8.814;2022-12-07T13:44:01;20.60;70.60
66271;DHT22;53063;39.614;8.814;2022-12-07T13:46:40;20.70;69.90
66271;DHT22;53063;39.614;8.814;2022-12-07T13:49:28;21.10;68.20
66271;DHT22;53063;39.614;8.814;2022-12-07T13:52:07;22.70;63.40
66271;DHT22;53063;39.614;8.814;2022-12-07T13:54:47;23.90;58.20
66271;DHT22;53063;39.614;8.814;2022-12-07T13:57:17;24.50;55.40
66271;DHT22;53063;39.614;8.814;2022-12-07T13:59:46;25.00;53.60
66271;DHT22;53063;39.614;8.814;2022-12-07T14:02:19;25.50;53.40
66271;DHT22;53063;39.614;8.814;2022-12-07T14:04:49;24.80;55.30
66271;DHT22;53063;39.614;8.814;2022-12-07T14:10:01;22.80;60.00
66271;DHT22;53063;39.614;8.814;2022-12-07T14:12:29;22.40;61.30
66271;DHT22;53063;39.614;8.814;2022-12-07T14:14:56;23.60;58.10
66271;DHT22;53063;39.614;8.814;2022-12-07T14:17:24;23.50;57.90
66271;DHT22;53063;39.614;8.814;2022-12-07T14:19:56;23.10;59.20
66271;DHT22;53063;39.614;8.814;2022-12-07T14:22:32;22.50;60.90
66271;DHT22;53063;39.614;8.814;2022-12-07T14:25:18;20.50;65.80
66271;DHT22;53063;39.614;8.814;2022-12-07T14:27:59;19.30;72.50
66271;DHT22;53063;39.614;8.814;2022-12-07T14:30:30;18.90;75.10
66271;DHT22;53063;39.614;8.814;2022-12-07T14:33:00;18.50;76.70
66271;DHT22;53063;39.614;8.814;2022-12-07T14:35:28;18.30;77.70
66271;DHT22;53063;39.614;8.814;2022-12-07T14:37:54;18.00;78.10
66271;DHT22;53063;39.614;8.814;2022-12-07T14:40:25;17.90;78.60
66271;DHT22;53063;39.614;8.814;2022-12-07T14:43:05;17.70;79.30
66271;DHT22;53063;39.614;8.814;2022-12-07T14:45:32;17.70;79.40
66271;DHT22;53063;39.614;8.814;2022-12-07T14:47:58;17.60;79.40
66271;DHT22;53063;39.614;8.814;2022-12-07T14:50:24;17.40;79.70
66271;DHT22;53063;39.614;8.814;2022-12-07T14:52:59;17.40;80.80
66271;DHT22;53063;39.614;8.814;2022-12-07T14:55:28;17.40;81.20
66271;DHT22;53063;39.614;8.814;2022-12-07T14:57:54;17.20;81.10
66271;DHT22;53063;39.614;8.814;2022-12-07T15:00:22;17.10;81.40
66271;DHT22;53063;39.614;8.814;2022-12-07T15:02:49;17.00;81.90
66271;DHT22;53063;39.614;8.814;2022-12-07T15:05:15;17.00;83.10
66271;DHT22;53063;39.614;8.814;2022-12-07T15:07:41;17.10;83.60
66271;DHT22;53063;39.614;8.814;2022-12-07T15:10:20;17.10;83.40
66271;DHT22;53063;39.614;8.814;2022-12-07T15:12:46;17.20;83.20
66271;DHT22;53063;39.614;8.814;2022-12-07T15:15:13;17.10;82.70
66271;DHT22;53063;39.614;8.814;2022-12-07T15:17:39;16.90;83.30
66271;DHT22;53063;39.614;8.814;2022-12-07T15:20:08;16.90;83.60
66271;DHT22;53063;39.614;8.814;2022-12-07T15:22:35;16.80;84.20
66271;DHT22;53063;39.614;8.814;2022-12-07T15:25:01;16.80;84.00
66271;DHT22;53063;39.614;8.814;2022-12-07T15:27:27;16.60;84.90
66271;DHT22;53063;39.614;8.814;2022-12-07T15:29:53;16.60;85.30
66271;DHT22;53063;39.614;8.814;2022-12-07T15:32:19;16.30;86.20
66271;DHT22;53063;39.614;8.814;2022-12-07T15:34:45;16.20;87.20
66271;DHT22;53063;39.614;8.814;2022-12-07T15:37:11;16.20;88.00
66271;DHT22;53063;39.614;8.814;2022-12-07T15:39:37;16.10;88.40
66271;DHT22;53063;39.614;8.814;2022-12-07T15:42:03;15.90;90.00
66271;DHT22;53063;39.614;8.814;2022-12-07T15:44:29;15.70;91.20
66271;DHT22;53063;39.614;8.814;2022-12-07T15:47:13;15.70;92.20
66271;DHT22;53063;39.614;8.814;2022-12-07T15:49:39;15.60;93.30
66271;DHT22;53063;39.614;8.814;2022-12-07T15:52:05;15.50;93.90
66271;DHT22;53063;39.614;8.814;2022-12-07T15:54:32;15.30;95.30
66271;DHT22;53063;39.614;8.814;2022-12-07T15:56:58;15.20;96.40
66271;DHT22;53063;39.614;8.814;2022-12-07T15:59:26;15.20;96.70
66271;DHT22;53063;39.614;8.814;2022-12-07T16:01:52;15.20;97.50
66271;DHT22;53063;39.614;8.814;2022-12-07T16:04:18;15.10;98.30
66271;DHT22;53063;39.614;8.814;2022-12-07T16:06:44;14.90;98.80
66271;DHT22;53063;39.614;8.814;2022-12-07T16:09:10;14.90;99.60
66271;DHT22;53063;39.614;8.814;2022-12-07T16:11:36;14.80;99.90
66271;DHT22;53063;39.614;8.814;2022-12-07T16:14:02;14.80;99.90
66271;DHT22;53063;39.614;8.814;2022-12-07T16:16:28;14.90;99.90
66271;DHT22;53063;39.614;8.814;2022-12-07T16:18:55;14.80;99.90
66271;DHT22;53063;39.614;8.814;2022-12-07T16:21:21;14.70;99.90
66271;DHT22;53063;39.614;8.814;2022-12-07T16:23:47;14.60;99.90
66271;DHT22;53063;39.614;8.814;2022-12-07T16:26:18;14.50;99.90
66271;DHT22;53063;39.614;8.814;2022-12-07T16:28:45;14.60;99.90
66271;DHT22;53063;39.614;8.814;2022-12-07T16:31:14;14.50;99.90
66271;DHT22;53063;39.614;8.814;2022-12-07T16:33:42;14.50;99.90
66271;DHT22;53063;39.614;8.814;2022-12-07T16:36:10;14.40;99.90
66271;DHT22;53063;39.614;8.814;2022-12-07T16:38:37;14.30;99.90
66271;DHT22;53063;39.614;8.814;2022-12-07T16:41:07;14.20;99.90
66271;DHT22;53063;39.614;8.814;2022-12-07T16:43:33;14.30;99.90
66271;DHT22;53063;39.614;8.814;2022-12-07T16:46:00;14.10;99.90
66271;DHT22;53063;39.614;8.814;2022-12-07T16:48:26;14.10;99.90
66271;DHT22;53063;39.614;8.814;2022-12-07T16:50:52;14.00;99.90
66271;DHT22;53063;39.614;8.814;2022-12-07T16:53:19;14.00;99.90
66271;DHT22;53063;39.614;8.814;2022-12-07T16:55:46;13.90;99.90
66271;DHT22;53063;39.614;8.814;2022-12-07T16:58:13;13.80;99.90
66271;DHT22;53063;39.614;8.814;2022-12-07T17:00:40;13.80;99.90
66271;DHT22;53063;39.614;8.814;2022-12-07T17:03:07;13.80;99.90
66271;DHT22;53063;39.614;8.814;2022-12-07T17:05:36;13.80;99.90
66271;DHT22;53063;39.614;8.814;2022-12-07T17:08:02;13.70;99.90
66271;DHT22;53063;39.614;8.814;2022-12-07T17:10:29;13.70;99.90
66271;DHT22;53063;39.614;8.814;2022-12-07T17:12:54;13.60;99.90
66271;DHT22;53063;39.614;8.814;2022-12-07T17:15:20;13.50;99.90
66271;DHT22;53063;39.614;8.814;2022-12-07T17:17:52;13.40;99.90
66271;DHT22;53063;39.614;8.814;2022-12-07T17:20:19;13.50;99.90
66271;DHT22;53063;39.614;8.814;2022-12-07T17:22:45;13.40;99.90
66271;DHT22;53063;39.614;8.814;2022-12-07T17:25:12;13.20;99.90
66271;DHT22;53063;39.614;8.814;2022-12-07T17:27:38;13.20;99.90
66271;DHT22;53063;39.614;8.814;2022-12-07T17:30:05;13.10;99.90
66271;DHT22;53063;39.614;8.814;2022-12-07T17:32:32;13.10;99.90
66271;DHT22;53063;39.614;8.814;2022-12-07T17:34:58;13.10;99.90
66271;DHT22;53063;39.614;8.814;2022-12-07T17:37:25;12.80;99.90
66271;DHT22;53063;39.614;8.814;2022-12-07T17:39:55;12.80;99.90
66271;DHT22;53063;39.614;8.814;2022-12-07T17:42:26;12.70;99.90
66271;DHT22;53063;39.614;8.814;2022-12-07T17:45:06;12.60;99.90
66271;DHT22;53063;39.614;8.814;2022-12-07T17:47:32;12.60;99.90
66271;DHT22;53063;39.614;8.814;2022-12-07T17:49:58;12.60;99.90
66271;DHT22;53063;39.614;8.814;2022-12-07T17:52:24;12.60;99.90
66271;DHT22;53063;39.614;8.814;2022-12-07T17:55:08;12.60;99.90
66271;DHT22;53063;39.614;8.814;2022-12-07T17:57:34;12.60;99.90
66271;DHT22;53063;39.614;8.814;2022-12-07T18:00:01;12.60;99.90
66271;DHT22;53063;39.614;8.814;2022-12-07T18:02:37;12.70;99.90
66271;DHT22;53063;39.614;8.814;2022-12-07T18:05:04;12.70;99.90
66271;DHT22;53063;39.614;8.814;2022-12-07T18:07:31;12.70;99.90
66271;DHT22;53063;39.614;8.814;2022-12-07T18:09:57;12.60;99.90
66271;DHT22;53063;39.614;8.814;2022-12-07T18:12:23;12.60;99.90